Terminal Aerodrome Forecast
Issued by NWS

Home | Current Version | Previous Version | Text Only | Print | Product List | Glossary On
Versions: 1 2 3 4 5 6 7 8 9 10 11 12 13 14 15 16 17 18 19 20 21 22 23 24 25 26 27 28 29 30 31 32 33 34 35
000
FTUS43 KGLD 231100
TAFMCK
TAF
KMCK 231120Z 2312/2412 05007KT 6SM BR SCT010
      TEMPO 2312/2313 BKN010
     FM231330 12008KT P6SM FEW020
     FM231800 12012G18KT P6SM FEW030
     FM240200 12007KT P6SM SCT300=

USA.gov is the U.S. government's official web portal to all federal, state and local government web resources and services.